Time;durP1;ratioP1;P1;durP2;ratioP2;P2;SDS_P1;SDS_P2;PMS_P1;PMS_P2;Temp;Humidity;BMP_temperature;BMP_pressure;BME280_temperature;BME280_humidity;BME280_pressure;Samples;Min_cycle;Max_cycle;Signal;HPM_P1;HPM_P2
2021/11/03 00:01:26;;;;;;;21.02;15.88;;;10.90;99.90;;;;;;5047697;28;20509;-46
2021/11/03 00:03:52;;;;;;;21.10;16.98;;;10.80;99.90;;;;;;5050681;28;20040;-49
2021/11/03 00:06:20;;;;;;;22.90;18.17;;;10.90;99.90;;;;;;5092055;28;20454;-46
2021/11/03 00:08:48;;;;;;;24.27;18.30;;;10.90;99.90;;;;;;5094845;28;20031;-48
2021/11/03 00:11:14;;;;;;;22.50;17.40;;;11.00;99.90;;;;;;5097224;28;20110;-49
2021/11/03 00:13:40;;;;;;;21.63;17.38;;;10.80;99.90;;;;;;5101871;28;20030;-52
2021/11/03 00:16:06;;;;;;;19.98;15.40;;;10.80;99.90;;;;;;5097269;28;20407;-50
2021/11/03 00:18:32;;;;;;;21.65;16.90;;;10.50;99.90;;;;;;5109004;28;20037;-50
2021/11/03 00:21:00;;;;;;;20.27;15.88;;;10.60;99.90;;;;;;5072786;28;20465;-45
2021/11/03 00:23:26;;;;;;;19.65;15.95;;;10.70;99.90;;;;;;5072706;28;20079;-49
2021/11/03 00:25:52;;;;;;;20.25;15.48;;;10.70;99.90;;;;;;5070902;28;20063;-52
2021/11/03 00:28:20;;;;;;;20.67;16.13;;;10.60;99.90;;;;;;5038206;28;20083;-51
2021/11/03 00:30:48;;;;;;;25.30;18.42;;;10.80;99.90;;;;;;5078018;28;20570;-49
2021/11/03 00:33:14;;;;;;;25.92;20.15;;;10.60;99.90;;;;;;5077729;28;20039;-48
2021/11/03 00:35:41;;;;;;;20.08;16.50;;;10.80;99.90;;;;;;5075733;28;20144;-52
2021/11/03 00:38:07;;;;;;;22.25;16.58;;;11.00;99.90;;;;;;5037332;28;20464;-48
2021/11/03 00:40:33;;;;;;;21.63;16.65;;;11.10;99.90;;;;;;5003003;28;20046;-49
2021/11/03 00:42:59;;;;;;;20.77;16.77;;;11.30;99.90;;;;;;5013207;28;20033;-47
2021/11/03 00:45:25;;;;;;;19.63;15.68;;;11.30;99.90;;;;;;5009362;28;20489;-48
2021/11/03 00:47:51;;;;;;;21.20;16.30;;;11.30;99.90;;;;;;5037901;28;20030;-49
2021/11/03 00:50:18;;;;;;;20.15;15.60;;;11.20;99.90;;;;;;5038159;28;20095;-51
2021/11/03 00:52:44;;;;;;;22.20;15.55;;;11.30;99.90;;;;;;5052662;28;20037;-46
2021/11/03 00:55:10;;;;;;;18.35;13.85;;;11.40;99.90;;;;;;5055278;28;20032;-51
2021/11/03 00:57:36;;;;;;;19.15;14.57;;;11.40;99.90;;;;;;5055846;28;20041;-52
2021/11/03 01:00:05;;;;;;;17.67;13.57;;;11.30;99.90;;;;;;5025859;28;20064;-50
2021/11/03 01:02:31;;;;;;;16.15;13.35;;;11.20;99.90;;;;;;5057386;28;20373;-50
2021/11/03 01:04:57;;;;;;;22.67;14.48;;;11.30;99.90;;;;;;5057743;28;20029;-47
2021/11/03 01:07:23;;;;;;;16.98;13.95;;;11.40;99.90;;;;;;5060104;28;20144;-47
2021/11/03 01:09:48;;;;;;;16.83;13.48;;;11.40;99.90;;;;;;5081992;28;20469;-45
2021/11/03 01:12:14;;;;;;;16.67;13.45;;;11.50;99.90;;;;;;5102057;28;20357;-51
2021/11/03 01:14:41;;;;;;;19.48;14.35;;;11.50;99.90;;;;;;5097885;28;20498;-49
2021/11/03 01:17:07;;;;;;;16.20;13.98;;;11.40;99.90;;;;;;5082860;28;20044;-47
2021/11/03 01:19:33;;;;;;;17.60;13.85;;;11.50;99.90;;;;;;5098266;28;20544;-50
2021/11/03 01:22:00;;;;;;;16.20;13.40;;;11.60;99.90;;;;;;5096918;28;20027;-46
2021/11/03 01:24:26;;;;;;;17.55;14.75;;;11.60;99.90;;;;;;5080258;28;20044;-49
2021/11/03 01:26:52;;;;;;;20.08;12.88;;;11.60;99.90;;;;;;5094225;28;20023;-53
2021/11/03 01:29:18;;;;;;;18.67;13.95;;;11.80;99.90;;;;;;5092842;28;20506;-50
2021/11/03 01:31:44;;;;;;;16.02;14.15;;;11.70;99.90;;;;;;5094768;28;20129;-51
2021/11/03 01:34:10;;;;;;;20.90;15.30;;;11.60;99.90;;;;;;5098673;28;20036;-49
2021/11/03 01:36:36;;;;;;;15.02;12.35;;;11.60;99.90;;;;;;5094625;28;20036;-47
2021/11/03 01:39:03;;;;;;;18.50;13.60;;;11.60;99.90;;;;;;5102626;28;20115;-50
2021/11/03 01:41:29;;;;;;;16.08;13.20;;;11.50;99.90;;;;;;5095311;28;20417;-52
2021/11/03 01:44:21;;;;;;;17.67;13.65;;;11.50;99.90;;;;;;5104420;28;20023;-49
2021/11/03 01:46:57;;;;;;;15.85;13.45;;;11.60;99.90;;;;;;5105162;28;20028;-48
2021/11/03 01:49:25;;;;;;;20.05;14.48;;;11.70;99.90;;;;;;5076918;28;20032;-49
2021/11/03 01:52:08;;;;;;;17.15;14.30;;;11.80;99.90;;;;;;5088060;28;20106;-50
2021/11/03 01:54:45;;;;;;;21.40;17.17;;;11.70;99.90;;;;;;5100112;28;20035;-47
2021/11/03 01:57:15;;;;;;;15.60;12.77;;;11.80;99.90;;;;;;5091403;28;20028;-51
2021/11/03 01:59:44;;;;;;;17.52;12.50;;;11.60;99.90;;;;;;5089518;28;20039;-49
2021/11/03 02:02:13;;;;;;;16.27;13.25;;;11.40;99.90;;;;;;5107004;28;20024;-50
2021/11/03 02:04:39;;;;;;;17.40;13.65;;;11.20;99.90;;;;;;5104375;28;20038;-48
2021/11/03 02:07:10;;;;;;;15.27;13.07;;;11.40;99.90;;;;;;5075062;28;20111;-49
2021/11/03 02:09:36;;;;;;;16.35;13.25;;;11.30;99.90;;;;;;5076414;28;20031;-49
2021/11/03 02:12:02;;;;;;;15.68;12.68;;;11.40;99.90;;;;;;5097074;28;20040;-48
2021/11/03 02:14:28;;;;;;;16.67;13.00;;;11.40;99.90;;;;;;5078499;28;20040;-46
2021/11/03 02:16:54;;;;;;;16.17;12.63;;;11.30;99.90;;;;;;5081495;28;20039;-49
2021/11/03 02:19:32;;;;;;;15.85;11.45;;;11.30;99.90;;;;;;5083248;28;20067;-47
2021/11/03 02:22:03;;;;;;;15.07;11.73;;;11.40;99.90;;;;;;5097083;28;20534;-52
2021/11/03 02:24:43;;;;;;;16.27;12.23;;;11.40;99.90;;;;;;5086338;28;20470;-48
2021/11/03 02:27:11;;;;;;;17.58;12.70;;;11.30;99.90;;;;;;5099141;28;20784;-46
2021/11/03 02:29:37;;;;;;;14.80;12.30;;;11.20;99.90;;;;;;5091656;28;20047;-46
2021/11/03 02:32:19;;;;;;;18.42;13.48;;;11.20;99.90;;;;;;5092743;28;20157;-49
2021/11/03 02:34:45;;;;;;;15.13;12.70;;;11.30;99.90;;;;;;5104308;28;20027;-50
2021/11/03 02:37:29;;;;;;;18.77;13.07;;;11.30;99.90;;;;;;5050208;28;20040;-47
2021/11/03 02:40:20;;;;;;;19.25;14.35;;;11.40;99.90;;;;;;5095888;28;20028;-49
2021/11/03 02:42:49;;;;;;;15.63;13.68;;;11.40;99.90;;;;;;5096784;28;20049;-48
2021/11/03 02:45:22;;;;;;;15.13;11.82;;;11.40;99.90;;;;;;5096602;28;20060;-51
2021/11/03 02:47:47;;;;;;;;;;;11.30;99.90;;;;;;5100812;28;20032;-47
2021/11/03 02:50:14;;;;;;;14.20;12.23;;;11.00;99.90;;;;;;5036983;28;19924;-50
2021/11/03 02:52:40;;;;;;;16.58;12.70;;;10.90;99.90;;;;;;5052983;28;20457;-52
2021/11/03 02:55:09;;;;;;;14.70;12.23;;;10.90;99.90;;;;;;5055483;28;20146;-50
2021/11/03 02:57:35;;;;;;;15.35;12.77;;;10.90;99.90;;;;;;5055224;28;20036;-49
2021/11/03 03:00:08;;;;;;;15.85;12.93;;;11.00;99.90;;;;;;5036785;28;20057;-46
2021/11/03 03:02:34;;;;;;;17.77;13.93;;;11.00;99.90;;;;;;5040290;28;20041;-49
2021/11/03 03:05:00;;;;;;;17.13;13.95;;;10.90;99.90;;;;;;5055672;28;20025;-48
2021/11/03 03:07:26;;;;;;;18.33;13.23;;;10.90;99.90;;;;;;5057508;28;20025;-49
2021/11/03 03:09:52;;;;;;;17.45;13.98;;;10.80;99.90;;;;;;5054245;28;20037;-46
2021/11/03 03:12:21;;;;;;;17.70;13.25;;;10.90;99.90;;;;;;5058589;28;20079;-52
2021/11/03 03:14:50;;;;;;;18.42;14.18;;;11.10;99.90;;;;;;5041501;28;20055;-50
2021/11/03 03:17:17;;;;;;;18.92;14.57;;;11.10;99.90;;;;;;5055638;28;20025;-50
2021/11/03 03:19:44;;;;;;;15.23;11.93;;;11.20;99.90;;;;;;5058198;28;20143;-50
2021/11/03 03:22:13;;;;;;;15.98;13.18;;;11.10;99.90;;;;;;5052866;28;20029;-50
2021/11/03 03:24:40;;;;;;;17.58;13.73;;;11.00;99.90;;;;;;5055510;28;20076;-47
2021/11/03 03:27:06;;;;;;;17.40;13.57;;;10.90;99.90;;;;;;5060869;28;20025;-51
2021/11/03 03:29:32;;;;;;;17.98;14.20;;;10.90;99.90;;;;;;5070523;28;20060;-49
2021/11/03 03:31:58;;;;;;;18.08;13.95;;;11.10;99.90;;;;;;5056469;28;20025;-53
2021/11/03 03:34:25;;;;;;;18.73;13.50;;;11.20;99.90;;;;;;5045538;28;20079;-48
2021/11/03 03:36:52;;;;;;;16.10;12.55;;;11.20;99.90;;;;;;5051736;28;20112;-50
2021/11/03 03:39:21;;;;;;;24.13;14.23;;;11.00;99.90;;;;;;5060173;28;20079;-46
2021/11/03 03:41:50;;;;;;;19.70;14.55;;;10.90;99.90;;;;;;5057609;28;20081;-48
2021/11/03 03:44:16;;;;;;;19.35;13.93;;;10.50;99.90;;;;;;5053957;28;20131;-50
2021/11/03 03:46:42;;;;;;;22.83;16.77;;;10.30;99.90;;;;;;5058649;28;20111;-51
2021/11/03 03:49:08;;;;;;;22.40;16.67;;;10.30;99.90;;;;;;5047728;28;20041;-48
2021/11/03 03:51:34;;;;;;;21.27;15.82;;;10.40;99.90;;;;;;5089871;28;20071;-48
2021/11/03 03:54:00;;;;;;;22.45;17.33;;;10.60;99.90;;;;;;5092821;28;20027;-52
2021/11/03 03:56:26;;;;;;;24.33;17.90;;;10.60;99.90;;;;;;5092410;28;20059;-52
2021/11/03 03:58:52;;;;;;;26.98;19.25;;;10.60;99.90;;;;;;5094002;28;20051;-47
2021/11/03 04:01:21;;;;;;;26.13;19.77;;;10.30;99.90;;;;;;5102435;28;20047;-45
2021/11/03 04:03:47;;;;;;;24.92;18.75;;;10.30;99.90;;;;;;5078427;28;20375;-50
2021/11/03 04:06:13;;;;;;;26.73;20.25;;;10.10;99.90;;;;;;5077593;28;20031;-46
2021/11/03 04:08:39;;;;;;;32.22;21.35;;;10.00;99.90;;;;;;5103069;28;20383;-50
2021/11/03 04:11:06;;;;;;;31.80;22.67;;;10.00;99.90;;;;;;5094257;28;20082;-48
2021/11/03 04:13:31;;;;;;;31.65;23.17;;;10.00;99.90;;;;;;5074183;28;20040;-51
2021/11/03 04:15:58;;;;;;;31.65;22.92;;;10.30;99.90;;;;;;5096011;28;20024;-49
2021/11/03 04:18:24;;;;;;;35.90;24.00;;;10.60;99.90;;;;;;5104797;28;20028;-46
2021/11/03 04:20:51;;;;;;;33.42;24.35;;;10.60;99.90;;;;;;5094722;28;20045;-48
2021/11/03 04:23:17;;;;;;;32.15;23.08;;;10.90;99.90;;;;;;5103423;28;20055;-49
2021/11/03 04:25:44;;;;;;;34.08;24.73;;;10.90;99.90;;;;;;5099539;28;20035;-48
2021/11/03 04:28:10;;;;;;;47.58;25.83;;;10.90;99.90;;;;;;5097523;28;20028;-46
2021/11/03 04:30:36;;;;;;;44.10;27.08;;;10.90;99.90;;;;;;5099961;28;20422;-50
2021/11/03 04:33:03;;;;;;;48.50;26.90;;;11.10;99.90;;;;;;5103006;28;20028;-52
2021/11/03 04:35:29;;;;;;;61.35;27.38;;;10.90;99.90;;;;;;5095219;28;20032;-51
2021/11/03 04:37:55;;;;;;;61.00;29.05;;;11.00;99.90;;;;;;5107030;28;20102;-50
2021/11/03 04:40:24;;;;;;;107.93;30.75;;;11.00;99.90;;;;;;5101269;28;20062;-48
2021/11/03 04:42:50;;;;;;;119.25;32.17;;;10.90;99.90;;;;;;5099274;28;20136;-51
2021/11/03 04:45:17;;;;;;;133.88;32.20;;;10.70;99.90;;;;;;5099789;28;20488;-52
2021/11/03 04:47:43;;;;;;;131.18;31.05;;;10.80;99.90;;;;;;5101792;28;20490;-51
2021/11/03 04:50:16;;;;;;;145.95;30.85;;;10.70;99.90;;;;;;5051871;28;20048;-50
2021/11/03 04:52:42;;;;;;;130.23;31.70;;;10.50;99.90;;;;;;5091657;28;20032;-48
2021/11/03 04:55:07;;;;;;;123.13;29.88;;;10.20;99.90;;;;;;5084704;28;20119;-53
2021/11/03 04:57:33;;;;;;;92.40;31.10;;;10.10;99.90;;;;;;5015334;28;20039;-48
2021/11/03 05:00:05;;;;;;;187.95;36.47;;;10.20;99.90;;;;;;5092109;28;20606;-51
2021/11/03 05:02:31;;;;;;;130.50;35.63;;;10.20;99.90;;;;;;5092574;28;20483;-50
2021/11/03 05:04:58;;;;;;;120.25;30.77;;;10.20;99.90;;;;;;5097460;28;20035;-47
2021/11/03 05:07:24;;;;;;;127.57;32.80;;;10.00;99.90;;;;;;5091138;28;20093;-50
2021/11/03 05:09:50;;;;;;;125.85;33.03;;;10.00;99.90;;;;;;5086514;28;20028;-50
2021/11/03 05:12:15;;;;;;;163.82;40.08;;;9.90;99.90;;;;;;5094255;28;20028;-53
2021/11/03 05:14:41;;;;;;;118.18;38.50;;;9.90;99.90;;;;;;5082188;28;20357;-51
2021/11/03 05:17:07;;;;;;;127.72;37.50;;;9.90;99.90;;;;;;5040285;28;20475;-49
2021/11/03 05:19:33;;;;;;;126.15;34.10;;;10.10;99.90;;;;;;5089920;28;20090;-52
2021/11/03 05:22:00;;;;;;;107.25;41.20;;;10.20;99.90;;;;;;5071987;28;20143;-50
2021/11/03 05:24:26;;;;;;;117.85;38.95;;;10.40;99.90;;;;;;5078292;28;20040;-50
2021/11/03 05:26:54;;;;;;;88.43;31.63;;;10.70;99.90;;;;;;5089162;28;20037;-51
2021/11/03 05:29:21;;;;;;;95.50;32.72;;;10.70;99.90;;;;;;5089064;28;20075;-48
2021/11/03 05:31:47;;;;;;;66.22;28.00;;;10.60;99.90;;;;;;5090456;28;20085;-50
2021/11/03 05:34:13;;;;;;;53.78;29.88;;;10.60;99.90;;;;;;5085806;28;20032;-48
2021/11/03 05:36:39;;;;;;;80.07;30.83;;;10.70;99.90;;;;;;5073486;28;20051;-48
2021/11/03 05:39:09;;;;;;;63.45;31.58;;;10.80;99.90;;;;;;5085817;28;20036;-51
2021/11/03 05:41:38;;;;;;;82.88;34.92;;;10.80;99.90;;;;;;5090312;28;20046;-48
2021/11/03 05:44:08;;;;;;;69.70;30.48;;;11.00;99.90;;;;;;5087313;28;20376;-51
2021/11/03 05:46:43;;;;;;;49.03;24.77;;;11.00;99.90;;;;;;5088689;28;20032;-50
2021/11/03 05:49:10;;;;;;;62.03;26.25;;;11.00;99.90;;;;;;5083831;28;20523;-53
2021/11/03 05:51:38;;;;;;;49.03;25.33;;;11.00;99.90;;;;;;5057196;28;20525;-49
2021/11/03 05:54:04;;;;;;;38.35;23.23;;;10.80;99.90;;;;;;5096987;28;20023;-51
2021/11/03 05:56:31;;;;;;;39.15;24.27;;;10.70;99.90;;;;;;5091079;28;20024;-49
2021/11/03 05:58:59;;;;;;;44.33;24.50;;;10.70;99.90;;;;;;5077204;28;20073;-49
2021/11/03 06:01:25;;;;;;;48.33;30.58;;;10.70;99.90;;;;;;5096900;28;20062;-50
2021/11/03 06:03:52;;;;;;;53.47;27.98;;;10.50;99.90;;;;;;5088968;28;20119;-48
2021/11/03 06:06:19;;;;;;;65.90;27.90;;;10.60;99.90;;;;;;5086637;28;20036;-44
2021/11/03 06:08:45;;;;;;;67.22;30.35;;;10.80;99.90;;;;;;5094396;28;20024;-48
2021/11/03 06:11:14;;;;;;;47.33;26.73;;;10.90;99.90;;;;;;5090393;28;20059;-45
2021/11/03 06:13:41;;;;;;;59.58;29.27;;;10.70;99.90;;;;;;5040777;28;20067;-51
2021/11/03 06:16:07;;;;;;;67.10;28.02;;;10.60;99.90;;;;;;5076039;28;20051;-50
2021/11/03 06:18:33;;;;;;;86.07;31.65;;;10.60;99.90;;;;;;5075245;28;20039;-52
2021/11/03 06:20:59;;;;;;;78.30;28.65;;;10.60;99.90;;;;;;5093733;28;20039;-50
2021/11/03 06:23:25;;;;;;;82.30;25.67;;;10.60;99.90;;;;;;5095631;28;20064;-49
2021/11/03 06:25:51;;;;;;;79.72;27.10;;;10.50;99.90;;;;;;5095392;28;20535;-50
2021/11/03 06:28:18;;;;;;;87.65;26.00;;;10.70;99.90;;;;;;5101220;28;20098;-48
2021/11/03 06:30:44;;;;;;;88.95;30.88;;;10.50;99.90;;;;;;5098434;28;20027;-48
2021/11/03 06:33:10;;;;;;;85.57;28.67;;;10.50;99.90;;;;;;5090866;28;20058;-54
2021/11/03 06:35:36;;;;;;;85.45;30.92;;;10.60;99.90;;;;;;5097855;28;20121;-49
2021/11/03 06:38:04;;;;;;;100.88;36.45;;;10.50;99.90;;;;;;5072453;28;20044;-51
2021/11/03 06:40:30;;;;;;;75.82;28.67;;;10.60;99.90;;;;;;5099518;28;20491;-51
2021/11/03 06:42:56;;;;;;;75.57;30.17;;;10.60;99.90;;;;;;5047126;28;20036;-49
2021/11/03 06:45:24;;;;;;;77.07;29.25;;;10.80;99.90;;;;;;5096460;28;20502;-51
2021/11/03 06:47:50;;;;;;;83.28;32.00;;;10.90;99.90;;;;;;5101867;28;20020;-51
2021/11/03 06:50:19;;;;;;;85.10;31.67;;;11.10;99.90;;;;;;5092786;28;20044;-53
2021/11/03 06:52:45;;;;;;;84.15;32.53;;;11.00;99.90;;;;;;5096500;28;20023;-50
2021/11/03 06:55:12;;;;;;;124.47;36.60;;;11.00;99.90;;;;;;5098734;28;20341;-50
2021/11/03 06:57:38;;;;;;;83.97;33.03;;;11.10;99.90;;;;;;5093327;28;20031;-47
2021/11/03 07:00:07;;;;;;;72.93;31.52;;;11.20;99.90;;;;;;5088023;28;20139;-49
2021/11/03 07:02:33;;;;;;;101.15;32.58;;;11.30;99.90;;;;;;5092317;28;20377;-50
2021/11/03 07:04:59;;;;;;;85.78;32.55;;;11.40;99.90;;;;;;5090927;28;20048;-50
2021/11/03 07:07:25;;;;;;;82.30;30.92;;;11.50;99.90;;;;;;5072591;28;20040;-51
2021/11/03 07:09:50;;;;;;;99.45;30.35;;;11.40;99.90;;;;;;5099313;28;20074;-48
2021/11/03 07:12:16;;;;;;;63.85;29.67;;;11.40;99.90;;;;;;5091613;28;20039;-50
2021/11/03 07:14:42;;;;;;;56.45;26.95;;;11.40;99.90;;;;;;5095111;28;20032;-47
2021/11/03 07:17:11;;;;;;;89.38;27.48;;;11.40;99.90;;;;;;5032938;28;20379;-48
2021/11/03 07:19:39;;;;;;;65.40;25.80;;;11.50;99.90;;;;;;5093620;28;20028;-49
2021/11/03 07:22:05;;;;;;;61.72;25.63;;;11.40;99.90;;;;;;5096607;28;20051;-49
2021/11/03 07:24:31;;;;;;;64.82;25.50;;;11.50;99.90;;;;;;5031279;28;20032;-49
2021/11/03 07:26:56;;;;;;;53.22;25.83;;;11.60;99.90;;;;;;5089342;28;20502;-52
2021/11/03 07:29:22;;;;;;;52.25;27.67;;;11.90;99.90;;;;;;5089228;28;20071;-50
2021/11/03 07:31:48;;;;;;;82.10;28.33;;;11.70;99.90;;;;;;5084501;28;20123;-47
2021/11/03 07:34:14;;;;;;;51.70;25.85;;;11.90;99.90;;;;;;5087971;28;20028;-51
2021/11/03 07:36:40;;;;;;;54.72;27.85;;;11.90;99.90;;;;;;5090058;28;20027;-47
2021/11/03 07:39:06;;;;;;;56.60;30.20;;;11.80;99.90;;;;;;5102054;28;20027;-49
2021/11/03 07:41:34;;;;;;;55.47;31.25;;;11.60;99.90;;;;;;5093364;28;20399;-47
2021/11/03 07:44:01;;;;;;;66.60;32.97;;;11.80;99.90;;;;;;5099767;28;20050;-47
2021/11/03 07:46:27;;;;;;;72.97;27.17;;;11.80;99.90;;;;;;5112715;28;20031;-47
2021/11/03 07:48:53;;;;;;;71.63;34.92;;;11.80;99.90;;;;;;5114093;27;20023;-51
2021/11/03 07:51:20;;;;;;;60.95;30.27;;;11.90;99.90;;;;;;5113820;28;20569;-46
2021/11/03 07:53:48;;;;;;;65.72;33.50;;;11.90;99.90;;;;;;5097399;28;20058;-47
2021/11/03 07:56:19;;;;;;;54.03;28.98;;;11.90;99.90;;;;;;5112370;28;20032;-50
2021/11/03 07:58:47;;;;;;;64.07;31.97;;;12.00;99.90;;;;;;5114269;28;20490;-49
2021/11/03 08:01:13;;;;;;;72.50;34.92;;;12.10;99.90;;;;;;5112194;28;20059;-49
2021/11/03 08:03:39;;;;;;;63.03;30.60;;;12.20;99.90;;;;;;5103726;28;20040;-49
2021/11/03 08:06:06;;;;;;;54.97;28.75;;;12.30;99.90;;;;;;5082348;28;20031;-46
2021/11/03 08:08:34;;;;;;;58.88;30.98;;;12.50;99.90;;;;;;5101605;28;20023;-52
2021/11/03 08:11:00;;;;;;;56.05;29.20;;;12.60;99.90;;;;;;5066194;28;20494;-48
2021/11/03 08:13:30;;;;;;;50.80;30.42;;;12.90;99.90;;;;;;5052382;28;20093;-49
2021/11/03 08:15:58;;;;;;;65.85;36.15;;;13.00;99.90;;;;;;5109865;28;20271;-51
2021/11/03 08:18:31;;;;;;;52.97;30.13;;;13.00;99.90;;;;;;5102530;28;20085;-53
2021/11/03 08:20:56;;;;;;;54.42;31.88;;;13.20;99.90;;;;;;5114291;28;20067;-50
2021/11/03 08:23:23;;;;;;;62.13;31.77;;;13.10;99.90;;;;;;5121253;27;20063;-49
2021/11/03 08:25:50;;;;;;;53.95;32.38;;;13.30;99.90;;;;;;5114258;28;20476;-51
2021/11/03 08:28:16;;;;;;;61.63;31.45;;;13.40;99.90;;;;;;5094974;28;20032;-51
2021/11/03 08:30:45;;;;;;;52.58;32.08;;;13.30;99.90;;;;;;5109584;28;20031;-49
2021/11/03 08:33:30;;;;;;;58.45;32.55;;;13.30;99.90;;;;;;5117258;28;20054;-50
2021/11/03 08:35:57;;;;;;;55.58;29.95;;;13.40;99.90;;;;;;5109934;28;20028;-50
2021/11/03 08:38:25;;;;;;;49.35;31.05;;;13.60;99.90;;;;;;5107277;28;20036;-46
2021/11/03 08:40:51;;;;;;;55.08;30.17;;;13.90;99.90;;;;;;5047384;28;20088;-48
2021/11/03 08:43:23;;;;;;;59.10;33.45;;;13.80;99.90;;;;;;5109794;28;20039;-48
2021/11/03 08:45:52;;;;;;;;;;;13.70;99.90;;;;;;5120519;27;20091;-48
2021/11/03 08:48:20;;;;;;;78.47;37.15;;;13.40;99.90;;;;;;5109515;27;19951;-49
2021/11/03 08:50:47;;;;;;;76.32;38.63;;;13.50;99.90;;;;;;5103601;27;20051;-50
2021/11/03 08:53:15;;;;;;;77.15;38.63;;;13.50;99.90;;;;;;5080168;28;20050;-46
2021/11/03 08:55:43;;;;;;;77.05;39.85;;;13.50;99.90;;;;;;5120867;27;20059;-45
2021/11/03 08:58:12;;;;;;;64.68;36.92;;;13.50;99.90;;;;;;5113528;27;20039;-50
2021/11/03 09:00:38;;;;;;;66.55;39.47;;;13.40;99.90;;;;;;5111451;28;20070;-48
2021/11/03 09:03:05;;;;;;;54.28;34.88;;;13.70;99.90;;;;;;5108461;27;20039;-52
2021/11/03 09:05:32;;;;;;;53.35;33.72;;;13.90;99.90;;;;;;5110678;27;20032;-49
2021/11/03 09:08:00;;;;;;;45.40;32.95;;;14.30;99.90;;;;;;5115985;27;20085;-49
2021/11/03 09:10:28;;;;;;;45.28;31.67;;;14.40;99.90;;;;;;5109471;27;20036;-50
2021/11/03 09:12:55;;;;;;;40.92;29.70;;;14.60;99.90;;;;;;5065407;28;20483;-52
2021/11/03 09:15:21;;;;;;;38.67;29.30;;;14.70;99.90;;;;;;5058160;28;20114;-51
2021/11/03 09:17:47;;;;;;;40.40;31.25;;;15.10;99.90;;;;;;5068097;28;20083;-49
2021/11/03 09:20:15;;;;;;;39.17;31.27;;;15.50;99.90;;;;;;5061036;28;20029;-47
2021/11/03 09:22:41;;;;;;;42.72;31.52;;;16.10;99.90;;;;;;5064721;28;20046;-49
2021/11/03 09:25:10;;;;;;;36.50;29.02;;;16.80;99.90;;;;;;5062634;28;20025;-50
2021/11/03 09:27:37;;;;;;;32.58;25.85;;;17.30;99.90;;;;;;5069888;28;20040;-47
2021/11/03 09:30:05;;;;;;;31.90;26.75;;;17.60;99.90;;;;;;5064278;28;20025;-47
2021/11/03 09:32:32;;;;;;;32.10;24.90;;;17.80;99.90;;;;;;5034109;28;20032;-47
2021/11/03 09:34:58;;;;;;;35.55;24.08;;;17.90;99.90;;;;;;5020110;28;20043;-47
2021/11/03 09:37:27;;;;;;;34.50;26.85;;;18.00;99.90;;;;;;5064400;28;20036;-46
2021/11/03 09:39:54;;;;;;;35.70;28.17;;;18.30;99.90;;;;;;5031668;28;20043;-47
2021/11/03 09:42:23;;;;;;;30.50;26.00;;;18.80;99.90;;;;;;5072144;28;20036;-45
2021/11/03 09:44:51;;;;;;;34.35;26.92;;;19.40;99.90;;;;;;5102910;27;20494;-45
2021/11/03 09:47:37;;;;;;;26.65;23.80;;;20.40;99.90;;;;;;5115927;27;20412;-50
2021/11/03 09:50:12;;;;;;;27.63;23.20;;;21.30;99.90;;;;;;5116375;27;20067;-49
2021/11/03 09:52:40;;;;;;;27.20;22.05;;;21.90;99.90;;;;;;5121965;27;20036;-51
2021/11/03 09:55:29;;;;;;;24.85;21.88;;;22.00;99.90;;;;;;5073408;28;20131;-47
2021/11/03 09:58:06;;;;;;;24.60;20.88;;;22.40;99.90;;;;;;5074325;28;20024;-45
2021/11/03 10:00:39;;;;;;;25.95;23.30;;;;;;;;;;5044351;28;20048;-46
2021/11/03 10:03:22;;;;;;;25.08;22.58;;;22.80;99.90;;;;;;5074477;28;20068;-53
2021/11/03 10:06:15;;;;;;;24.02;21.60;;;23.60;99.90;;;;;;5079451;28;20043;-47
2021/11/03 10:08:45;;;;;;;30.23;27.17;;;24.20;99.90;;;;;;5068244;28;20043;-50
2021/11/03 10:11:19;;;;;;;28.70;26.08;;;24.00;99.90;;;;;;5037858;28;20086;-50
2021/11/03 10:13:46;;;;;;;24.23;21.67;;;23.90;99.90;;;;;;5031367;28;20049;-47
2021/11/03 10:16:15;;;;;;;23.15;20.70;;;24.60;99.90;;;;;;5031987;28;20053;-50
2021/11/03 10:18:55;;;;;;;21.05;18.42;;;24.30;99.90;;;;;;5035269;28;20523;-49
2021/11/03 10:21:21;;;;;;;22.95;19.27;;;24.30;99.90;;;;;;5039705;28;20086;-48
2021/11/03 10:24:11;;;;;;;24.52;20.88;;;24.20;99.90;;;;;;5043435;28;20381;-50
2021/11/03 10:27:01;;;;;;;24.17;21.60;;;23.50;99.90;;;;;;5067001;28;20070;-44
2021/11/03 10:29:35;;;;;;;23.83;19.35;;;23.40;99.90;;;;;;5041680;28;20071;-50
2021/11/03 10:32:07;;;;;;;22.50;18.38;;;23.50;99.90;;;;;;5098960;28;20063;-50
2021/11/03 10:34:35;;;;;;;23.33;19.10;;;23.20;99.90;;;;;;5091623;28;20036;-49
2021/11/03 10:37:13;;;;;;;22.05;17.88;;;23.00;99.90;;;;;;5093243;28;20071;-46
2021/11/03 10:40:05;;;;;;;22.88;20.45;;;23.00;99.90;;;;;;5099072;28;20036;-52
2021/11/03 10:42:41;;;;;;;25.42;20.35;;;23.00;99.90;;;;;;5048612;27;20051;-47
2021/11/03 10:45:16;;;;;;;22.10;19.77;;;23.70;99.90;;;;;;5124381;27;20035;-45
2021/11/03 10:47:50;;;;;;;22.80;20.70;;;24.10;99.70;;;;;;5119591;27;20106;-49
2021/11/03 10:50:56;;;;;;;24.33;21.10;;;24.20;98.90;;;;;;5120373;27;20379;-48
2021/11/03 10:53:29;;;;;;;20.45;18.20;;;25.00;99.00;;;;;;5077984;28;20134;-44
2021/11/03 10:56:18;;;;;;;23.42;19.75;;;25.50;97.80;;;;;;5099892;28;20028;-43
2021/11/03 10:58:50;;;;;;;18.42;16.52;;;25.50;96.70;;;;;;5100624;28;20526;-50
2021/11/03 11:01:40;;;;;;;21.38;17.92;;;25.50;96.00;;;;;;5086199;28;20036;-49
2021/11/03 11:04:24;;;;;;;21.98;19.67;;;26.20;96.50;;;;;;5090513;28;20058;-48
2021/11/03 11:06:54;;;;;;;23.42;21.13;;;26.50;94.00;;;;;;5098019;28;20032;-53
2021/11/03 11:10:01;;;;;;;17.92;16.08;;;26.50;93.70;;;;;;5100325;28;20036;-52
2021/11/03 11:12:43;;;;;;;17.50;15.52;;;26.90;93.10;;;;;;5090292;28;20034;-48
2021/11/03 11:15:48;;;;;;;17.05;15.35;;;27.50;92.00;;;;;;5098398;28;20031;-45
2021/11/03 11:18:30;;;;;;;16.80;15.20;;;27.40;90.70;;;;;;5050290;28;20496;-48
2021/11/03 11:21:00;;;;;;;20.35;18.30;;;27.30;91.10;;;;;;4976734;28;20103;-53
2021/11/03 11:23:42;;;;;;;17.58;15.65;;;26.80;90.70;;;;;;5051123;28;20369;-51
2021/11/03 11:26:28;;;;;;;13.60;12.20;;;26.50;91.30;;;;;;5070369;28;20060;-49
2021/11/03 11:29:15;;;;;;;15.68;14.38;;;26.20;90.80;;;;;;5069631;28;20047;-50
2021/11/03 11:31:57;;;;;;;14.00;12.57;;;25.80;96.70;;;;;;5069681;28;20558;-55
2021/11/03 11:34:41;;;;;;;13.75;12.45;;;25.60;91.60;;;;;;5069897;28;20032;-51
2021/11/03 11:37:24;;;;;;;11.55;10.27;;;25.60;91.50;;;;;;5070025;28;20060;-51
2021/11/03 11:39:53;;;;;;;10.88;8.75;;;25.80;91.60;;;;;;5071198;28;20560;-52
2021/11/03 11:42:25;;;;;;;11.02;8.70;;;25.50;98.60;;;;;;5069445;28;20041;-46
2021/11/03 11:45:12;;;;;;;11.05;8.07;;;25.40;96.30;;;;;;5069294;28;20166;-47
2021/11/03 11:47:52;;;;;;;6.18;4.43;;;25.60;92.10;;;;;;5050882;28;20123;-52
2021/11/03 11:50:22;;;;;;;6.20;4.35;;;;;;;;;;5009526;28;20141;-48
2021/11/03 11:52:49;;;;;;;7.40;3.70;;;24.40;95.50;;;;;;5001257;28;20370;-49
2021/11/03 11:55:14;;;;;;;6.10;3.42;;;24.20;91.20;;;;;;5078343;28;20036;-48
2021/11/03 11:57:42;;;;;;;8.43;5.05;;;23.90;91.50;;;;;;5054821;28;20033;-49
2021/11/03 12:00:08;;;;;;;8.00;4.32;;;23.80;92.00;;;;;;5071193;28;20032;-52
2021/11/03 12:02:47;;;;;;;8.80;4.22;;;24.00;91.70;;;;;;5070643;28;20032;-48
2021/11/03 12:05:31;;;;;;;6.22;3.42;;;24.40;91.40;;;;;;5069938;28;20433;-49
2021/11/03 12:08:09;;;;;;;4.93;2.63;;;23.90;90.50;;;;;;5066717;28;20033;-49
2021/11/03 12:10:59;;;;;;;5.55;2.95;;;23.70;91.00;;;;;;5073167;28;20036;-49
2021/11/03 12:13:30;;;;;;;6.88;2.90;;;23.50;91.10;;;;;;5072663;28;20028;-48
2021/11/03 12:15:56;;;;;;;4.70;2.78;;;23.70;91.60;;;;;;5060471;28;20037;-48
2021/11/03 12:18:24;;;;;;;5.65;2.80;;;23.80;91.70;;;;;;5072232;28;20557;-47
2021/11/03 12:21:02;;;;;;;5.28;2.92;;;23.80;91.70;;;;;;5085069;28;20048;-44
2021/11/03 12:23:40;;;;;;;6.07;2.90;;;23.70;91.00;;;;;;5108827;27;20023;-46
2021/11/03 12:26:24;;;;;;;3.92;2.08;;;23.30;91.70;;;;;;5107001;27;20383;-48
2021/11/03 12:29:15;;;;;;;6.75;3.05;;;23.00;92.40;;;;;;5107371;28;20034;-46
2021/11/03 12:31:51;;;;;;;8.32;3.08;;;23.00;92.80;;;;;;5109361;28;20493;-53
2021/11/03 12:34:21;;;;;;;7.65;3.92;;;23.00;92.40;;;;;;5108950;28;20023;-58
2021/11/03 12:36:47;;;;;;;5.50;2.85;;;23.10;93.10;;;;;;5089038;28;20031;-46
2021/11/03 12:39:28;;;;;;;7.80;2.92;;;23.00;90.90;;;;;;5109308;27;20051;-50
2021/11/03 12:41:55;;;;;;;5.82;2.47;;;23.30;92.70;;;;;;5092740;28;20407;-45